sensor_id;sensor_type;location;lat;lon;timestamp;P1;durP1;ratioP1;P2;durP2;ratioP2
20044;SDS011;10183;47.808;9.476;2024-03-02T00:02:12;55.80;;;41.70;;
20044;SDS011;10183;47.808;9.476;2024-03-02T00:04:39;56.97;;;41.53;;
20044;SDS011;10183;47.808;9.476;2024-03-02T00:07:06;58.13;;;43.40;;
20044;SDS011;10183;47.808;9.476;2024-03-02T00:09:32;61.77;;;43.20;;
20044;SDS011;10183;47.808;9.476;2024-03-02T00:12:01;60.77;;;42.43;;
20044;SDS011;10183;47.808;9.476;2024-03-02T00:14:31;59.80;;;42.77;;
20044;SDS011;10183;47.808;9.476;2024-03-02T00:16:57;65.17;;;43.30;;
20044;SDS011;10183;47.808;9.476;2024-03-02T00:19:23;63.20;;;42.83;;
20044;SDS011;10183;47.808;9.476;2024-03-02T00:21:50;68.17;;;43.20;;
20044;SDS011;10183;47.808;9.476;2024-03-02T00:26:45;69.97;;;45.37;;
20044;SDS011;10183;47.808;9.476;2024-03-02T00:29:11;66.40;;;45.97;;
20044;SDS011;10183;47.808;9.476;2024-03-02T00:31:41;74.47;;;47.70;;
20044;SDS011;10183;47.808;9.476;2024-03-02T00:34:07;78.07;;;47.03;;
20044;SDS011;10183;47.808;9.476;2024-03-02T00:36:33;64.47;;;43.63;;
20044;SDS011;10183;47.808;9.476;2024-03-02T00:38:59;68.63;;;43.63;;
20044;SDS011;10183;47.808;9.476;2024-03-02T00:46:21;69.03;;;43.67;;
20044;SDS011;10183;47.808;9.476;2024-03-02T00:48:55;75.47;;;45.97;;
20044;SDS011;10183;47.808;9.476;2024-03-02T00:51:22;104.20;;;45.40;;
20044;SDS011;10183;47.808;9.476;2024-03-02T00:53:48;110.07;;;44.70;;
20044;SDS011;10183;47.808;9.476;2024-03-02T00:56:15;92.07;;;47.33;;
20044;SDS011;10183;47.808;9.476;2024-03-02T00:58:42;78.83;;;49.90;;
20044;SDS011;10183;47.808;9.476;2024-03-02T01:01:08;279.40;;;52.23;;
20044;SDS011;10183;47.808;9.476;2024-03-02T01:03:34;324.03;;;54.57;;
20044;SDS011;10183;47.808;9.476;2024-03-02T01:06:02;225.30;;;54.10;;
20044;SDS011;10183;47.808;9.476;2024-03-02T01:08:28;197.63;;;53.37;;
20044;SDS011;10183;47.808;9.476;2024-03-02T01:10:54;81.77;;;48.77;;
20044;SDS011;10183;47.808;9.476;2024-03-02T01:13:23;81.47;;;48.63;;
20044;SDS011;10183;47.808;9.476;2024-03-02T01:15:49;145.50;;;48.20;;
20044;SDS011;10183;47.808;9.476;2024-03-02T01:18:15;126.37;;;52.10;;
20044;SDS011;10183;47.808;9.476;2024-03-02T01:20:41;97.07;;;50.60;;
20044;SDS011;10183;47.808;9.476;2024-03-02T01:23:07;88.57;;;50.27;;
20044;SDS011;10183;47.808;9.476;2024-03-02T01:25:33;96.53;;;49.37;;
20044;SDS011;10183;47.808;9.476;2024-03-02T01:28:00;93.50;;;47.07;;
20044;SDS011;10183;47.808;9.476;2024-03-02T01:30:26;118.93;;;46.87;;
20044;SDS011;10183;47.808;9.476;2024-03-02T01:32:52;219.57;;;47.40;;
20044;SDS011;10183;47.808;9.476;2024-03-02T01:35:18;143.27;;;45.87;;
20044;SDS011;10183;47.808;9.476;2024-03-02T01:37:44;173.10;;;44.03;;
20044;SDS011;10183;47.808;9.476;2024-03-02T01:40:10;333.97;;;48.50;;
20044;SDS011;10183;47.808;9.476;2024-03-02T01:42:37;281.97;;;47.80;;
20044;SDS011;10183;47.808;9.476;2024-03-02T01:45:07;223.47;;;49.07;;
20044;SDS011;10183;47.808;9.476;2024-03-02T01:47:33;149.77;;;47.70;;
20044;SDS011;10183;47.808;9.476;2024-03-02T01:49:59;277.00;;;52.10;;
20044;SDS011;10183;47.808;9.476;2024-03-02T01:52:26;258.63;;;52.10;;
20044;SDS011;10183;47.808;9.476;2024-03-02T01:54:52;477.20;;;58.90;;
20044;SDS011;10183;47.808;9.476;2024-03-02T01:57:18;407.67;;;56.00;;
20044;SDS011;10183;47.808;9.476;2024-03-02T01:59:44;475.33;;;58.43;;
20044;SDS011;10183;47.808;9.476;2024-03-02T02:02:12;258.40;;;53.20;;
20044;SDS011;10183;47.808;9.476;2024-03-02T02:04:38;570.73;;;63.17;;
20044;SDS011;10183;47.808;9.476;2024-03-02T02:07:04;369.97;;;56.33;;
20044;SDS011;10183;47.808;9.476;2024-03-02T02:09:31;270.77;;;54.60;;
20044;SDS011;10183;47.808;9.476;2024-03-02T02:11:57;334.80;;;57.00;;
20044;SDS011;10183;47.808;9.476;2024-03-02T02:14:24;305.07;;;56.60;;
20044;SDS011;10183;47.808;9.476;2024-03-02T02:16:50;337.60;;;57.93;;
20044;SDS011;10183;47.808;9.476;2024-03-02T02:19:17;318.37;;;59.37;;
20044;SDS011;10183;47.808;9.476;2024-03-02T02:21:43;427.20;;;60.37;;
20044;SDS011;10183;47.808;9.476;2024-03-02T02:24:09;303.60;;;55.00;;
20044;SDS011;10183;47.808;9.476;2024-03-02T02:26:35;176.77;;;54.70;;
20044;SDS011;10183;47.808;9.476;2024-03-02T02:29:01;250.87;;;55.97;;
20044;SDS011;10183;47.808;9.476;2024-03-02T02:31:36;369.90;;;58.37;;
20044;SDS011;10183;47.808;9.476;2024-03-02T02:34:02;219.53;;;54.30;;
20044;SDS011;10183;47.808;9.476;2024-03-02T02:36:28;321.03;;;55.40;;
20044;SDS011;10183;47.808;9.476;2024-03-02T02:38:54;430.10;;;60.03;;
20044;SDS011;10183;47.808;9.476;2024-03-02T02:41:21;144.53;;;50.23;;
20044;SDS011;10183;47.808;9.476;2024-03-02T02:43:47;143.23;;;47.73;;
20044;SDS011;10183;47.808;9.476;2024-03-02T02:46:13;198.90;;;49.20;;
20044;SDS011;10183;47.808;9.476;2024-03-02T02:48:39;191.77;;;47.93;;
20044;SDS011;10183;47.808;9.476;2024-03-02T02:51:05;159.80;;;49.40;;
20044;SDS011;10183;47.808;9.476;2024-03-02T02:53:31;128.27;;;47.67;;
20044;SDS011;10183;47.808;9.476;2024-03-02T02:55:57;166.87;;;50.87;;
20044;SDS011;10183;47.808;9.476;2024-03-02T02:58:23;122.37;;;50.67;;
20044;SDS011;10183;47.808;9.476;2024-03-02T03:00:49;484.17;;;56.67;;
20044;SDS011;10183;47.808;9.476;2024-03-02T03:03:15;333.23;;;53.60;;
20044;SDS011;10183;47.808;9.476;2024-03-02T03:05:41;126.47;;;49.73;;
20044;SDS011;10183;47.808;9.476;2024-03-02T03:08:07;208.17;;;51.13;;
20044;SDS011;10183;47.808;9.476;2024-03-02T03:10:33;164.90;;;48.07;;
20044;SDS011;10183;47.808;9.476;2024-03-02T03:12:59;107.37;;;47.17;;
20044;SDS011;10183;47.808;9.476;2024-03-02T03:15:25;418.90;;;52.67;;
20044;SDS011;10183;47.808;9.476;2024-03-02T03:17:51;435.37;;;55.23;;
20044;SDS011;10183;47.808;9.476;2024-03-02T03:20:17;546.90;;;58.57;;
20044;SDS011;10183;47.808;9.476;2024-03-02T03:22:43;649.20;;;62.80;;
20044;SDS011;10183;47.808;9.476;2024-03-02T03:25:09;511.00;;;57.37;;
20044;SDS011;10183;47.808;9.476;2024-03-02T03:27:35;482.17;;;59.90;;
20044;SDS011;10183;47.808;9.476;2024-03-02T03:30:01;225.47;;;50.73;;
20044;SDS011;10183;47.808;9.476;2024-03-02T03:32:28;295.30;;;54.43;;
20044;SDS011;10183;47.808;9.476;2024-03-02T03:34:54;277.50;;;53.60;;
20044;SDS011;10183;47.808;9.476;2024-03-02T03:37:20;200.67;;;53.90;;
20044;SDS011;10183;47.808;9.476;2024-03-02T03:39:46;106.53;;;48.37;;
20044;SDS011;10183;47.808;9.476;2024-03-02T03:42:12;99.37;;;47.43;;
20044;SDS011;10183;47.808;9.476;2024-03-02T03:44:38;94.30;;;47.37;;
20044;SDS011;10183;47.808;9.476;2024-03-02T03:47:05;107.70;;;49.97;;
20044;SDS011;10183;47.808;9.476;2024-03-02T03:49:31;123.70;;;51.67;;
20044;SDS011;10183;47.808;9.476;2024-03-02T03:51:57;145.97;;;51.33;;
20044;SDS011;10183;47.808;9.476;2024-03-02T03:54:23;114.20;;;50.40;;
20044;SDS011;10183;47.808;9.476;2024-03-02T03:56:49;116.63;;;50.67;;
20044;SDS011;10183;47.808;9.476;2024-03-02T03:59:15;138.30;;;51.27;;
20044;SDS011;10183;47.808;9.476;2024-03-02T04:01:41;112.20;;;49.00;;
20044;SDS011;10183;47.808;9.476;2024-03-02T04:04:07;109.50;;;49.97;;
20044;SDS011;10183;47.808;9.476;2024-03-02T04:06:33;119.80;;;51.73;;
20044;SDS011;10183;47.808;9.476;2024-03-02T04:08:59;115.07;;;52.53;;
20044;SDS011;10183;47.808;9.476;2024-03-02T04:11:25;109.53;;;50.10;;
20044;SDS011;10183;47.808;9.476;2024-03-02T04:13:51;128.90;;;55.97;;
20044;SDS011;10183;47.808;9.476;2024-03-02T04:16:17;143.33;;;57.50;;
20044;SDS011;10183;47.808;9.476;2024-03-02T04:18:43;134.03;;;56.20;;
20044;SDS011;10183;47.808;9.476;2024-03-02T04:21:09;142.87;;;57.40;;
20044;SDS011;10183;47.808;9.476;2024-03-02T04:23:36;186.03;;;63.37;;
20044;SDS011;10183;47.808;9.476;2024-03-02T04:26:02;161.57;;;61.40;;
20044;SDS011;10183;47.808;9.476;2024-03-02T04:28:29;143.73;;;57.00;;
20044;SDS011;10183;47.808;9.476;2024-03-02T04:30:55;158.63;;;59.23;;
20044;SDS011;10183;47.808;9.476;2024-03-02T04:33:21;196.53;;;61.60;;
20044;SDS011;10183;47.808;9.476;2024-03-02T04:35:47;174.00;;;61.27;;
20044;SDS011;10183;47.808;9.476;2024-03-02T04:38:13;168.97;;;61.07;;
20044;SDS011;10183;47.808;9.476;2024-03-02T04:40:39;163.83;;;61.93;;
20044;SDS011;10183;47.808;9.476;2024-03-02T04:43:05;171.07;;;62.23;;
20044;SDS011;10183;47.808;9.476;2024-03-02T04:45:31;169.57;;;61.27;;
20044;SDS011;10183;47.808;9.476;2024-03-02T04:47:57;161.77;;;59.43;;
20044;SDS011;10183;47.808;9.476;2024-03-02T04:50:23;178.10;;;63.50;;
20044;SDS011;10183;47.808;9.476;2024-03-02T04:52:49;204.27;;;67.97;;
20044;SDS011;10183;47.808;9.476;2024-03-02T04:55:15;210.27;;;66.63;;
20044;SDS011;10183;47.808;9.476;2024-03-02T04:57:41;192.07;;;65.67;;
20044;SDS011;10183;47.808;9.476;2024-03-02T05:00:07;155.90;;;61.50;;
20044;SDS011;10183;47.808;9.476;2024-03-02T05:02:34;175.77;;;63.27;;
20044;SDS011;10183;47.808;9.476;2024-03-02T05:05:00;209.17;;;67.90;;
20044;SDS011;10183;47.808;9.476;2024-03-02T05:07:26;217.80;;;69.33;;
20044;SDS011;10183;47.808;9.476;2024-03-02T05:09:52;239.90;;;71.97;;
20044;SDS011;10183;47.808;9.476;2024-03-02T05:12:18;285.83;;;74.03;;
20044;SDS011;10183;47.808;9.476;2024-03-02T05:15:02;308.67;;;74.53;;
20044;SDS011;10183;47.808;9.476;2024-03-02T05:17:29;292.03;;;73.80;;
20044;SDS011;10183;47.808;9.476;2024-03-02T05:19:55;321.77;;;75.33;;
20044;SDS011;10183;47.808;9.476;2024-03-02T05:22:21;322.67;;;75.20;;
20044;SDS011;10183;47.808;9.476;2024-03-02T05:24:47;365.03;;;74.33;;
20044;SDS011;10183;47.808;9.476;2024-03-02T05:27:13;484.33;;;74.97;;
20044;SDS011;10183;47.808;9.476;2024-03-02T05:29:39;332.47;;;72.73;;
20044;SDS011;10183;47.808;9.476;2024-03-02T05:32:05;234.77;;;67.63;;
20044;SDS011;10183;47.808;9.476;2024-03-02T05:34:32;364.23;;;68.77;;
20044;SDS011;10183;47.808;9.476;2024-03-02T05:37:00;686.30;;;80.07;;
20044;SDS011;10183;47.808;9.476;2024-03-02T05:39:26;600.93;;;76.47;;
20044;SDS011;10183;47.808;9.476;2024-03-02T05:41:52;439.90;;;68.30;;
20044;SDS011;10183;47.808;9.476;2024-03-02T05:44:18;451.17;;;67.77;;
20044;SDS011;10183;47.808;9.476;2024-03-02T05:46:44;519.63;;;68.93;;
20044;SDS011;10183;47.808;9.476;2024-03-02T05:49:10;413.00;;;67.03;;
20044;SDS011;10183;47.808;9.476;2024-03-02T05:51:36;812.83;;;80.70;;
20044;SDS011;10183;47.808;9.476;2024-03-02T05:54:03;795.10;;;80.80;;
20044;SDS011;10183;47.808;9.476;2024-03-02T05:56:29;583.00;;;69.90;;
20044;SDS011;10183;47.808;9.476;2024-03-02T05:58:55;608.87;;;73.20;;
20044;SDS011;10183;47.808;9.476;2024-03-02T06:01:33;546.17;;;70.37;;
20044;SDS011;10183;47.808;9.476;2024-03-02T06:03:59;456.50;;;72.90;;
20044;SDS011;10183;47.808;9.476;2024-03-02T06:06:25;820.20;;;90.57;;
20044;SDS011;10183;47.808;9.476;2024-03-02T06:08:51;344.70;;;71.17;;
20044;SDS011;10183;47.808;9.476;2024-03-02T06:11:19;412.17;;;70.27;;
20044;SDS011;10183;47.808;9.476;2024-03-02T06:13:45;713.00;;;84.50;;
20044;SDS011;10183;47.808;9.476;2024-03-02T06:16:11;521.30;;;74.17;;
20044;SDS011;10183;47.808;9.476;2024-03-02T06:18:37;252.57;;;66.17;;
20044;SDS011;10183;47.808;9.476;2024-03-02T06:21:04;636.03;;;77.60;;
20044;SDS011;10183;47.808;9.476;2024-03-02T06:23:30;370.90;;;66.63;;
20044;SDS011;10183;47.808;9.476;2024-03-02T06:25:57;373.80;;;69.63;;
20044;SDS011;10183;47.808;9.476;2024-03-02T06:28:23;503.20;;;72.73;;
20044;SDS011;10183;47.808;9.476;2024-03-02T06:30:49;580.23;;;75.60;;
20044;SDS011;10183;47.808;9.476;2024-03-02T06:33:15;268.87;;;63.03;;
20044;SDS011;10183;47.808;9.476;2024-03-02T06:35:41;428.60;;;68.83;;
20044;SDS011;10183;47.808;9.476;2024-03-02T06:38:07;393.50;;;70.00;;
20044;SDS011;10183;47.808;9.476;2024-03-02T06:40:33;249.77;;;65.37;;
20044;SDS011;10183;47.808;9.476;2024-03-02T06:42:59;296.73;;;64.33;;
20044;SDS011;10183;47.808;9.476;2024-03-02T06:45:25;538.23;;;74.27;;
20044;SDS011;10183;47.808;9.476;2024-03-02T06:47:51;207.63;;;62.13;;
20044;SDS011;10183;47.808;9.476;2024-03-02T06:50:17;209.73;;;66.50;;
20044;SDS011;10183;47.808;9.476;2024-03-02T06:52:43;182.10;;;65.60;;
20044;SDS011;10183;47.808;9.476;2024-03-02T06:55:10;196.67;;;68.27;;
20044;SDS011;10183;47.808;9.476;2024-03-02T06:57:36;334.67;;;71.43;;
20044;SDS011;10183;47.808;9.476;2024-03-02T07:00:02;170.10;;;65.73;;
20044;SDS011;10183;47.808;9.476;2024-03-02T07:02:30;149.60;;;62.63;;
20044;SDS011;10183;47.808;9.476;2024-03-02T07:04:56;151.20;;;63.10;;
20044;SDS011;10183;47.808;9.476;2024-03-02T07:07:22;145.40;;;62.53;;
20044;SDS011;10183;47.808;9.476;2024-03-02T07:09:48;151.13;;;63.23;;
20044;SDS011;10183;47.808;9.476;2024-03-02T07:12:14;137.30;;;59.97;;
20044;SDS011;10183;47.808;9.476;2024-03-02T07:14:40;137.57;;;58.03;;
20044;SDS011;10183;47.808;9.476;2024-03-02T07:17:24;113.87;;;57.43;;
20044;SDS011;10183;47.808;9.476;2024-03-02T07:19:51;140.97;;;60.60;;
20044;SDS011;10183;47.808;9.476;2024-03-02T07:22:17;148.13;;;64.67;;
20044;SDS011;10183;47.808;9.476;2024-03-02T07:24:43;133.27;;;61.07;;
20044;SDS011;10183;47.808;9.476;2024-03-02T07:27:10;139.97;;;55.70;;
20044;SDS011;10183;47.808;9.476;2024-03-02T07:29:37;127.40;;;58.13;;
20044;SDS011;10183;47.808;9.476;2024-03-02T07:32:03;131.10;;;59.73;;
20044;SDS011;10183;47.808;9.476;2024-03-02T07:34:29;126.33;;;59.30;;
20044;SDS011;10183;47.808;9.476;2024-03-02T07:36:55;126.83;;;59.77;;
20044;SDS011;10183;47.808;9.476;2024-03-02T07:39:21;107.10;;;57.10;;
20044;SDS011;10183;47.808;9.476;2024-03-02T07:41:48;102.13;;;55.97;;
20044;SDS011;10183;47.808;9.476;2024-03-02T07:44:14;95.87;;;51.60;;
20044;SDS011;10183;47.808;9.476;2024-03-02T07:46:40;90.57;;;52.37;;
20044;SDS011;10183;47.808;9.476;2024-03-02T07:49:07;90.13;;;52.57;;
20044;SDS011;10183;47.808;9.476;2024-03-02T07:51:33;87.37;;;51.73;;
20044;SDS011;10183;47.808;9.476;2024-03-02T07:53:59;93.43;;;53.70;;
20044;SDS011;10183;47.808;9.476;2024-03-02T07:56:25;92.10;;;55.33;;
20044;SDS011;10183;47.808;9.476;2024-03-02T07:58:51;79.83;;;50.47;;
20044;SDS011;10183;47.808;9.476;2024-03-02T08:01:18;82.03;;;50.47;;
20044;SDS011;10183;47.808;9.476;2024-03-02T08:03:44;87.43;;;55.00;;
20044;SDS011;10183;47.808;9.476;2024-03-02T08:06:13;80.90;;;49.80;;
20044;SDS011;10183;47.808;9.476;2024-03-02T08:08:45;88.20;;;52.17;;
20044;SDS011;10183;47.808;9.476;2024-03-02T08:11:11;85.13;;;51.00;;
20044;SDS011;10183;47.808;9.476;2024-03-02T08:13:37;80.53;;;51.27;;
20044;SDS011;10183;47.808;9.476;2024-03-02T08:16:03;77.40;;;49.87;;
20044;SDS011;10183;47.808;9.476;2024-03-02T08:18:32;73.97;;;46.90;;
20044;SDS011;10183;47.808;9.476;2024-03-02T08:20:58;69.00;;;47.53;;
20044;SDS011;10183;47.808;9.476;2024-03-02T08:23:24;70.77;;;45.97;;
20044;SDS011;10183;47.808;9.476;2024-03-02T08:25:50;66.93;;;46.80;;
20044;SDS011;10183;47.808;9.476;2024-03-02T08:28:16;59.10;;;43.10;;
20044;SDS011;10183;47.808;9.476;2024-03-02T08:30:42;58.37;;;41.90;;
20044;SDS011;10183;47.808;9.476;2024-03-02T08:33:08;60.50;;;44.33;;
20044;SDS011;10183;47.808;9.476;2024-03-02T08:35:34;59.23;;;41.63;;
20044;SDS011;10183;47.808;9.476;2024-03-02T08:38:04;62.07;;;43.23;;
20044;SDS011;10183;47.808;9.476;2024-03-02T08:40:30;54.07;;;38.83;;
20044;SDS011;10183;47.808;9.476;2024-03-02T08:42:56;54.03;;;37.17;;
20044;SDS011;10183;47.808;9.476;2024-03-02T08:45:22;55.00;;;38.17;;
20044;SDS011;10183;47.808;9.476;2024-03-02T08:47:48;62.07;;;40.47;;
20044;SDS011;10183;47.808;9.476;2024-03-02T08:50:14;64.87;;;43.60;;
20044;SDS011;10183;47.808;9.476;2024-03-02T08:52:40;75.00;;;50.20;;
20044;SDS011;10183;47.808;9.476;2024-03-02T08:55:06;90.60;;;66.73;;
20044;SDS011;10183;47.808;9.476;2024-03-02T08:57:32;83.17;;;60.47;;
20044;SDS011;10183;47.808;9.476;2024-03-02T08:59:59;86.53;;;66.77;;
20044;SDS011;10183;47.808;9.476;2024-03-02T09:02:25;89.40;;;68.83;;
20044;SDS011;10183;47.808;9.476;2024-03-02T09:04:51;82.23;;;62.17;;
20044;SDS011;10183;47.808;9.476;2024-03-02T09:07:18;80.73;;;60.50;;
20044;SDS011;10183;47.808;9.476;2024-03-02T09:09:44;82.03;;;63.77;;
20044;SDS011;10183;47.808;9.476;2024-03-02T09:12:10;63.63;;;49.93;;
20044;SDS011;10183;47.808;9.476;2024-03-02T09:14:36;64.97;;;52.87;;
20044;SDS011;10183;47.808;9.476;2024-03-02T09:17:02;82.00;;;65.37;;
20044;SDS011;10183;47.808;9.476;2024-03-02T09:19:29;78.03;;;62.63;;
20044;SDS011;10183;47.808;9.476;2024-03-02T09:21:55;60.03;;;50.17;;
20044;SDS011;10183;47.808;9.476;2024-03-02T09:24:21;57.70;;;47.60;;
20044;SDS011;10183;47.808;9.476;2024-03-02T09:26:47;75.60;;;62.73;;
20044;SDS011;10183;47.808;9.476;2024-03-02T09:29:13;76.53;;;63.80;;
20044;SDS011;10183;47.808;9.476;2024-03-02T09:31:40;73.73;;;61.03;;
20044;SDS011;10183;47.808;9.476;2024-03-02T09:34:06;79.00;;;65.87;;
20044;SDS011;10183;47.808;9.476;2024-03-02T09:36:32;76.10;;;57.90;;
20044;SDS011;10183;47.808;9.476;2024-03-02T09:38:58;69.27;;;57.10;;
20044;SDS011;10183;47.808;9.476;2024-03-02T09:41:24;61.63;;;52.77;;
20044;SDS011;10183;47.808;9.476;2024-03-02T09:43:50;66.67;;;59.37;;
20044;SDS011;10183;47.808;9.476;2024-03-02T09:46:16;61.43;;;52.37;;
20044;SDS011;10183;47.808;9.476;2024-03-02T09:48:43;76.30;;;67.90;;
20044;SDS011;10183;47.808;9.476;2024-03-02T09:51:10;72.00;;;63.00;;
20044;SDS011;10183;47.808;9.476;2024-03-02T09:53:36;70.43;;;62.23;;
20044;SDS011;10183;47.808;9.476;2024-03-02T09:56:03;68.63;;;61.07;;
20044;SDS011;10183;47.808;9.476;2024-03-02T09:58:32;69.50;;;59.63;;
20044;SDS011;10183;47.808;9.476;2024-03-02T10:00:58;71.30;;;63.53;;
20044;SDS011;10183;47.808;9.476;2024-03-02T10:03:24;72.57;;;63.93;;
20044;SDS011;10183;47.808;9.476;2024-03-02T10:05:50;70.97;;;63.27;;
20044;SDS011;10183;47.808;9.476;2024-03-02T10:08:16;79.70;;;70.73;;
20044;SDS011;10183;47.808;9.476;2024-03-02T10:10:42;56.67;;;50.53;;
20044;SDS011;10183;47.808;9.476;2024-03-02T10:13:09;55.07;;;49.37;;
20044;SDS011;10183;47.808;9.476;2024-03-02T10:15:36;52.40;;;46.97;;
20044;SDS011;10183;47.808;9.476;2024-03-02T10:18:03;50.93;;;45.63;;
20044;SDS011;10183;47.808;9.476;2024-03-02T10:20:29;52.53;;;46.87;;
20044;SDS011;10183;47.808;9.476;2024-03-02T10:23:10;70.03;;;62.33;;
20044;SDS011;10183;47.808;9.476;2024-03-02T10:25:36;72.60;;;63.03;;
20044;SDS011;10183;47.808;9.476;2024-03-02T10:28:02;68.40;;;61.00;;
20044;SDS011;10183;47.808;9.476;2024-03-02T10:30:31;72.53;;;64.73;;
20044;SDS011;10183;47.808;9.476;2024-03-02T10:32:57;70.73;;;58.27;;
20044;SDS011;10183;47.808;9.476;2024-03-02T10:35:23;66.80;;;59.37;;
20044;SDS011;10183;47.808;9.476;2024-03-02T10:37:50;49.63;;;44.17;;
20044;SDS011;10183;47.808;9.476;2024-03-02T10:40:17;49.50;;;43.00;;
20044;SDS011;10183;47.808;9.476;2024-03-02T10:42:43;52.60;;;44.13;;
20044;SDS011;10183;47.808;9.476;2024-03-02T10:45:11;45.80;;;41.07;;
20044;SDS011;10183;47.808;9.476;2024-03-02T10:47:37;51.87;;;46.87;;
20044;SDS011;10183;47.808;9.476;2024-03-02T10:50:04;61.00;;;55.50;;
20044;SDS011;10183;47.808;9.476;2024-03-02T10:52:36;58.97;;;53.17;;
20044;SDS011;10183;47.808;9.476;2024-03-02T10:55:04;57.93;;;52.63;;
20044;SDS011;10183;47.808;9.476;2024-03-02T11:00:06;43.40;;;36.43;;
20044;SDS011;10183;47.808;9.476;2024-03-02T11:02:39;52.90;;;47.30;;
20044;SDS011;10183;47.808;9.476;2024-03-02T11:05:06;63.23;;;48.30;;
20044;SDS011;10183;47.808;9.476;2024-03-02T11:07:34;68.03;;;53.70;;
20044;SDS011;10183;47.808;9.476;2024-03-02T11:10:01;68.23;;;53.30;;
20044;SDS011;10183;47.808;9.476;2024-03-02T11:12:38;68.70;;;60.67;;
20044;SDS011;10183;47.808;9.476;2024-03-02T11:15:06;69.70;;;59.43;;
20044;SDS011;10183;47.808;9.476;2024-03-02T11:17:35;74.63;;;66.50;;
20044;SDS011;10183;47.808;9.476;2024-03-02T11:20:02;80.73;;;72.37;;
20044;SDS011;10183;47.808;9.476;2024-03-02T11:22:29;74.03;;;65.77;;
20044;SDS011;10183;47.808;9.476;2024-03-02T11:24:55;74.07;;;61.70;;
20044;SDS011;10183;47.808;9.476;2024-03-02T11:27:58;76.57;;;66.33;;
20044;SDS011;10183;47.808;9.476;2024-03-02T11:30:07;75.17;;;64.73;;
20044;SDS011;10183;47.808;9.476;2024-03-02T11:32:34;74.27;;;65.63;;
20044;SDS011;10183;47.808;9.476;2024-03-02T11:35:00;69.00;;;59.90;;
20044;SDS011;10183;47.808;9.476;2024-03-02T11:37:28;64.15;;;55.55;;
20044;SDS011;10183;47.808;9.476;2024-03-02T11:39:54;70.27;;;62.30;;
20044;SDS011;10183;47.808;9.476;2024-03-02T11:42:20;72.72;;;64.22;;
20044;SDS011;10183;47.808;9.476;2024-03-02T11:44:46;68.60;;;60.85;;
20044;SDS011;10183;47.808;9.476;2024-03-02T11:47:14;74.20;;;63.55;;
20044;SDS011;10183;47.808;9.476;2024-03-02T11:49:45;67.43;;;59.88;;
20044;SDS011;10183;47.808;9.476;2024-03-02T11:52:14;67.38;;;57.72;;
20044;SDS011;10183;47.808;9.476;2024-03-02T11:54:42;67.75;;;59.13;;
20044;SDS011;10183;47.808;9.476;2024-03-02T11:57:15;59.33;;;50.83;;
20044;SDS011;10183;47.808;9.476;2024-03-02T11:59:42;53.10;;;47.35;;
20044;SDS011;10183;47.808;9.476;2024-03-02T12:02:14;57.60;;;51.40;;
20044;SDS011;10183;47.808;9.476;2024-03-02T12:04:41;59.40;;;53.17;;
20044;SDS011;10183;47.808;9.476;2024-03-02T12:07:08;58.80;;;52.45;;
20044;SDS011;10183;47.808;9.476;2024-03-02T12:09:34;58.50;;;50.85;;
20044;SDS011;10183;47.808;9.476;2024-03-02T12:12:19;71.75;;;56.65;;
20044;SDS011;10183;47.808;9.476;2024-03-02T12:14:51;80.70;;;72.55;;
20044;SDS011;10183;47.808;9.476;2024-03-02T12:17:21;81.45;;;71.75;;
20044;SDS011;10183;47.808;9.476;2024-03-02T12:19:47;53.83;;;48.17;;
20044;SDS011;10183;47.808;9.476;2024-03-02T12:22:13;57.17;;;51.03;;
20044;SDS011;10183;47.808;9.476;2024-03-02T12:24:40;53.58;;;47.75;;
20044;SDS011;10183;47.808;9.476;2024-03-02T12:27:10;75.35;;;64.70;;
20044;SDS011;10183;47.808;9.476;2024-03-02T12:29:36;82.80;;;73.75;;
20044;SDS011;10183;47.808;9.476;2024-03-02T12:32:02;75.97;;;67.70;;
20044;SDS011;10183;47.808;9.476;2024-03-02T12:34:28;82.15;;;73.45;;
20044;SDS011;10183;47.808;9.476;2024-03-02T12:36:54;69.07;;;61.63;;
20044;SDS011;10183;47.808;9.476;2024-03-02T12:39:20;72.03;;;62.97;;
20044;SDS011;10183;47.808;9.476;2024-03-02T12:41:48;68.47;;;61.33;;
20044;SDS011;10183;47.808;9.476;2024-03-02T12:44:15;61.30;;;54.78;;
20044;SDS011;10183;47.808;9.476;2024-03-02T12:46:41;56.40;;;50.45;;
20044;SDS011;10183;47.808;9.476;2024-03-02T12:49:08;50.78;;;45.45;;
20044;SDS011;10183;47.808;9.476;2024-03-02T12:51:36;54.15;;;48.25;;
20044;SDS011;10183;47.808;9.476;2024-03-02T12:54:02;41.55;;;36.17;;
20044;SDS011;10183;47.808;9.476;2024-03-02T12:56:28;42.88;;;38.47;;
20044;SDS011;10183;47.808;9.476;2024-03-02T12:58:55;47.08;;;42.28;;
20044;SDS011;10183;47.808;9.476;2024-03-02T13:01:21;41.92;;;37.53;;
20044;SDS011;10183;47.808;9.476;2024-03-02T13:03:48;46.75;;;41.78;;
20044;SDS011;10183;47.808;9.476;2024-03-02T13:06:16;52.13;;;46.58;;
20044;SDS011;10183;47.808;9.476;2024-03-02T13:08:42;51.70;;;46.35;;
20044;SDS011;10183;47.808;9.476;2024-03-02T13:11:09;50.10;;;44.75;;
20044;SDS011;10183;47.808;9.476;2024-03-02T13:13:35;44.42;;;39.92;;
20044;SDS011;10183;47.808;9.476;2024-03-02T13:16:03;53.15;;;47.85;;
20044;SDS011;10183;47.808;9.476;2024-03-02T13:18:29;37.63;;;33.53;;
20044;SDS011;10183;47.808;9.476;2024-03-02T13:20:56;39.10;;;35.03;;
20044;SDS011;10183;47.808;9.476;2024-03-02T13:23:22;40.20;;;36.10;;
20044;SDS011;10183;47.808;9.476;2024-03-02T13:25:48;41.55;;;37.25;;
20044;SDS011;10183;47.808;9.476;2024-03-02T13:28:14;45.47;;;40.90;;
20044;SDS011;10183;47.808;9.476;2024-03-02T13:30:40;41.95;;;37.75;;
20044;SDS011;10183;47.808;9.476;2024-03-02T13:33:06;40.45;;;36.25;;
20044;SDS011;10183;47.808;9.476;2024-03-02T13:35:32;42.63;;;38.35;;
20044;SDS011;10183;47.808;9.476;2024-03-02T13:37:58;48.50;;;43.70;;
20044;SDS011;10183;47.808;9.476;2024-03-02T13:40:24;45.67;;;41.28;;
20044;SDS011;10183;47.808;9.476;2024-03-02T13:42:50;49.67;;;44.90;;
20044;SDS011;10183;47.808;9.476;2024-03-02T13:45:17;47.47;;;42.88;;
20044;SDS011;10183;47.808;9.476;2024-03-02T13:47:43;47.78;;;43.20;;
20044;SDS011;10183;47.808;9.476;2024-03-02T13:50:09;47.55;;;42.85;;
20044;SDS011;10183;47.808;9.476;2024-03-02T13:52:35;50.10;;;45.30;;
20044;SDS011;10183;47.808;9.476;2024-03-02T13:55:01;49.03;;;44.42;;
20044;SDS011;10183;47.808;9.476;2024-03-02T13:57:27;43.70;;;39.45;;
20044;SDS011;10183;47.808;9.476;2024-03-02T13:59:54;44.42;;;40.22;;
20044;SDS011;10183;47.808;9.476;2024-03-02T14:02:20;44.47;;;40.28;;
20044;SDS011;10183;47.808;9.476;2024-03-02T14:04:46;38.60;;;34.60;;
20044;SDS011;10183;47.808;9.476;2024-03-02T14:07:15;41.45;;;37.45;;
20044;SDS011;10183;47.808;9.476;2024-03-02T14:09:41;40.67;;;36.70;;
20044;SDS011;10183;47.808;9.476;2024-03-02T14:12:07;41.78;;;37.58;;
20044;SDS011;10183;47.808;9.476;2024-03-02T14:14:33;48.90;;;43.65;;
20044;SDS011;10183;47.808;9.476;2024-03-02T14:17:00;45.20;;;40.70;;
20044;SDS011;10183;47.808;9.476;2024-03-02T14:19:30;44.42;;;40.03;;
20044;SDS011;10183;47.808;9.476;2024-03-02T14:21:56;51.45;;;46.45;;
20044;SDS011;10183;47.808;9.476;2024-03-02T14:24:22;52.60;;;47.20;;